Bandon, OR (97411)

2:02 PM PST on December 06, 2016 (GMT -0800)
KORBANDO2 | | Change Station

Elev 77 ft 43.12 °N, 124.43 °W | Updated 4 minutes ago

Clear
Clear
44.3 °F
Feels Like 39 °F
N
11.0
Wind Variable Wind from North
Gusts 14.0 mph

Today
High -- | Low -- °F
--% Chance of Precip.
Yesterday
High -- | Low -- °F
Precip. -- in
Pressure 30.16 in
Visibility 10.0 miles
Clouds Clear
Windchill 39 °F
Dew Point 37 °F
Humidity 76%
Rainfall 0.14 in
Snow Depth Not available.
7:35 AM 4:42 PM
Waxing Crescent, 45% visible
METAR KOTH 062155Z 04005KT 10SM CLR 08/03 A3016 RMK AO1
Pressure 30.16 in
Visibility 10.0 miles
Clouds Clear
Windchill 39 °F
Dew Point 37 °F
Humidity 76%
Rainfall 0.14 in
Snow Depth Not available.
7:35 AM 4:42 PM
Waxing Crescent, 45% visible
METAR KOTH 062155Z 04005KT 10SM CLR 08/03 A3016 RMK AO1

10-Day Weather Forecast

Almanac

Astronomy

Dec. 06, 2016 Rise Set
Actual Time
Civil Twilight
Nautical Twilight
Astronomical Twilight
Moon
Length of Visible Light
Length of Day
Tomorrow will be .
, % of the Moon is Illuminated

Today's Extremes

State Highs State Lows

Community

WunderPhotos

Upload Photos

1,956,037 photos uploaded!

WunderBlog® & News

Nearby

Air Quality

  Air Quality AQ Index Pollutant
Not available.

Snow Depth

Station Depth Elevation

Earthquake Activity

City Distance Mag. Time & Date
Minimum magnitude displayed is 2.5.

Coastal Water Temperatures

Place Temperature

Stations

Nearby Weather Stations

Station Location Temp. Windchill Dew Point Humidity Wind Precip. Elev Updated Type
                   

Watches & Warnings

Freeze Warning, Frost Advisory
Issued: 2:00 PM PST Dec. 6, 2016 – National Weather Service

... Frost advisory remains in effect from midnight tonight to 8 am
PST Wednesday...
... Freeze warning remains in effect from 1 am to 7 am PST
Wednesday...

* temperature... 25 to 35.

* Locations in the freeze warning include... Coquille... Myrtle
Point and Powers.

* Locations in the frost advisory includes Bandon... Coos Bay...
North Bend... Reedsport and areas along the coast.

* Impacts... this may be the first freeze of the fall for many
coastal valleys inland from the immediate coast.

* View the hazard area in detail at
http://weather.Gov/Medford/hazard

Precautionary/preparedness actions...

A freeze warning means sub-freezing temperatures are imminent or
highly likely. These conditions will kill crops and other
sensitive vegetation.

A frost advisory means that frost is possible. Sensitive outdoor
plants may be killed if left uncovered.